Terminal Aerodrome Forecast
Issued by NWS Medford, OR

Home | Current Version | Previous Version | Text Only | Print | Product List | Glossary On
Versions: 1 2 3 4 5 6 7 8 9 10 11 12
000
FTUS46 KMFR 171700 RRA
TAFMFR
TAF
KMFR 171750Z 1718/1818 VRB03KT P6SM VCSH BKN050 OVC100
     FM172100 VRB03KT P6SM -SHRA BKN040 OVC060
     FM180900 35005KT P6SM -SHRA SCT025 OVC040
     FM181200 00000KT P6SM BKN025
     FM181600 VRB03KT P6SM SCT025=

USA.gov is the U.S. government's official web portal to all federal, state and local government web resources and services.